Time;durP1;ratioP1;P1;durP2;ratioP2;P2;SDS_P1;SDS_P2;PMS_P1;PMS_P2;Temp;Humidity;BMP_temperature;BMP_pressure;BME280_temperature;BME280_humidity;BME280_pressure;Samples;Min_cycle;Max_cycle;Signal;HPM_P1;HPM_P2
2023/01/24 00:00:11;;;;;;;3.17;1.92;;;;;;;-1.53;73.90;103324.06;4939781;28;20460;-77
2023/01/24 00:02:38;;;;;;;4.55;2.03;;;;;;;-1.51;73.93;103320.81;4942493;28;20047;-75
2023/01/24 00:05:06;;;;;;;3.25;2.10;;;;;;;-1.49;73.55;103313.25;4938196;28;20062;-80
2023/01/24 00:07:34;;;;;;;3.17;2.20;;;;;;;-1.48;74.14;103305.69;4937299;28;20051;-77
2023/01/24 00:10:01;;;;;;;3.85;2.30;;;;;;;-1.53;73.97;103299.31;4939989;29;20078;-76
2023/01/24 00:12:29;;;;;;;2.42;1.55;;;;;;;-1.44;73.77;103305.09;4938413;28;20050;-78
2023/01/24 00:14:57;;;;;;;3.42;2.25;;;;;;;-1.42;74.07;103320.59;4940400;28;20062;-77
2023/01/24 00:17:25;;;;;;;4.32;2.30;;;;;;;-1.40;73.90;103324.13;4937593;28;20186;-76
2023/01/24 00:19:52;;;;;;;3.67;2.28;;;;;;;-1.38;74.04;103331.16;4938818;29;20472;-77
2023/01/24 00:22:18;;;;;;;3.25;2.03;;;;;;;-1.36;74.20;103331.28;4934898;28;20122;-76
2023/01/24 00:24:48;;;;;;;2.25;1.70;;;;;;;-1.34;74.21;103333.94;4941925;28;20054;-76
2023/01/24 00:27:15;;;;;;;3.53;2.10;;;;;;;-1.41;74.21;103302.75;4939963;28;20051;-77
2023/01/24 00:29:42;;;;;;;4.38;2.50;;;;;;;-1.32;73.91;103302.50;4938215;28;20385;-76
2023/01/24 00:32:09;;;;;;;3.20;2.03;;;;;;;-1.29;73.89;103323.22;4941533;29;20479;-77
2023/01/24 00:34:36;;;;;;;4.70;2.13;;;;;;;-1.31;73.88;103332.50;4942133;28;20092;-75
2023/01/24 00:37:03;;;;;;;3.40;2.03;;;;;;;-1.27;74.47;103334.50;4940025;28;20047;-77
2023/01/24 00:39:30;;;;;;;3.78;1.83;;;;;;;-1.25;74.31;103322.69;4936680;29;20055;-77
2023/01/24 00:41:58;;;;;;;5.53;3.22;;;;;;;-1.23;74.49;103321.09;4937427;28;20054;-77
2023/01/24 00:44:25;;;;;;;3.97;2.10;;;;;;;-1.21;73.88;103313.53;4938278;28;20058;-76
2023/01/24 00:46:52;;;;;;;6.78;2.80;;;;;;;-1.20;73.92;103305.91;4937037;28;20059;-77
2023/01/24 00:49:19;;;;;;;4.50;2.30;;;;;;;-1.17;74.27;103313.84;4937021;28;20048;-76
2023/01/24 00:51:46;;;;;;;4.35;2.42;;;;;;;-1.15;74.29;103311.38;4940305;28;20047;-76
2023/01/24 00:54:13;;;;;;;3.08;2.00;;;;;;;-1.21;74.66;103278.50;4937851;28;20431;-76
2023/01/24 00:56:40;;;;;;;3.40;2.25;;;;;;;-1.20;74.25;103264.88;4941097;28;20061;-76
2023/01/24 00:59:08;;;;;;;3.00;1.80;;;;;;;-1.09;74.19;103282.72;4938744;28;20488;-76
2023/01/24 01:01:35;;;;;;;2.95;2.10;;;;;;;-1.08;73.99;103297.31;4936006;28;20047;-76
2023/01/24 01:04:02;;;;;;;4.95;1.92;;;;;;;-1.06;74.56;103294.06;4939999;28;20051;-76
2023/01/24 01:06:29;;;;;;;3.35;1.90;;;;;;;-1.04;74.17;103292.50;4937509;28;20044;-76
2023/01/24 01:08:56;;;;;;;3.75;1.83;;;;;;;-1.02;74.01;103314.03;4937588;28;20548;-77
2023/01/24 01:11:23;;;;;;;3.72;1.70;;;;;;;-1.01;73.92;103308.09;4936788;28;20475;-78
2023/01/24 01:13:50;;;;;;;3.45;2.15;;;;;;;-0.99;74.03;103282.56;4941169;28;20055;-76
2023/01/24 01:16:20;;;;;;;5.40;2.60;;;;;;;-1.00;73.78;103273.06;4932550;28;20067;-77
2023/01/24 01:18:49;;;;;;;3.35;2.40;;;;;;;-0.96;74.61;103249.44;4939185;28;20051;-76
2023/01/24 01:21:18;;;;;;;5.18;1.73;;;;;;;-0.94;74.22;103242.69;4940418;28;20058;-76
2023/01/24 01:23:45;;;;;;;5.63;2.25;;;;;;;-0.92;74.06;103230.88;4938911;28;20044;-76
2023/01/24 01:26:16;;;;;;;6.40;2.63;;;;;;;-0.91;74.26;103219.84;4939849;28;20053;-75
2023/01/24 01:28:43;;;;;;;4.07;2.42;;;;;;;-0.89;74.11;103236.22;4941940;29;20657;-76
2023/01/24 01:31:10;;;;;;;4.03;1.98;;;;;;;-0.87;74.25;103247.47;4939615;29;20040;-78
2023/01/24 01:33:38;;;;;;;3.55;1.92;;;;;;;-0.86;74.79;103245.81;4936704;28;20055;-77
2023/01/24 01:36:06;;;;;;;4.57;2.17;;;;;;;-0.84;74.26;103247.69;4939989;28;20056;-76
2023/01/24 01:38:33;;;;;;;3.47;1.80;;;;;;;-0.83;74.30;103257.16;4939224;28;20043;-76
2023/01/24 01:41:00;;;;;;;3.13;1.85;;;;;;;-0.82;74.27;103258.97;4939447;28;20047;-77
2023/01/24 01:43:29;;;;;;;2.45;1.95;;;;;;;-0.79;74.22;103246.31;4938482;28;21529;-76
2023/01/24 01:46:00;;;;;;;3.90;2.47;;;;;;;-0.78;74.78;103255.78;4939364;28;20059;-76
2023/01/24 01:48:35;;;;;;;3.03;2.30;;;;;;;-0.76;73.85;103238.84;4939807;28;20471;-76
2023/01/24 01:51:12;;;;;;;5.03;2.58;;;;;;;-0.75;74.06;103244.84;4939179;28;20043;-76
2023/01/24 01:53:44;;;;;;;2.92;1.75;;;;;;;-0.72;73.81;103224.53;4936538;28;20058;-76
2023/01/24 01:56:16;;;;;;;3.38;1.95;;;;;;;-0.82;74.31;103201.63;4941847;28;20055;-77
2023/01/24 01:58:43;;;;;;;2.95;2.05;;;;;;;-0.80;73.85;103207.72;4947576;28;20051;-77
2023/01/24 02:01:10;;;;;;;3.65;2.22;;;;;;;-0.69;74.53;103224.72;4940801;29;20044;-76
2023/01/24 02:03:43;;;;;;;3.65;2.08;;;;;;;-0.83;74.15;103210.97;4943080;28;20062;-76
2023/01/24 02:06:24;;;;;;;3.22;2.47;;;;;;;-0.68;73.91;103242.81;4942111;29;20604;-77
2023/01/24 02:08:52;;;;;;;5.38;2.13;;;;;;;-0.65;74.55;103246.38;4940232;28;20055;-77
2023/01/24 02:16:49;;;;;;;4.97;2.43;;;;;;;-0.63;74.05;103216.53;4940339;28;20110;-76
2023/01/24 02:19:32;;;;;;;4.13;2.97;;;;;;;-0.61;74.70;103202.13;4943367;28;20048;-76
2023/01/24 02:22:08;;;;;;;2.88;2.30;;;;;;;-0.60;74.75;103224.44;4942189;28;20047;-76
2023/01/24 02:24:41;;;;;;;4.57;2.47;;;;;;;-0.58;73.77;103233.16;4943475;28;20110;-77
2023/01/24 02:27:09;;;;;;;3.47;1.73;;;;;;;-0.57;74.13;103234.91;4941006;28;20457;-78
2023/01/24 02:29:36;;;;;;;4.15;1.90;;;;;;;-0.56;74.31;103227.31;4947623;28;20058;-76
2023/01/24 02:32:07;;;;;;;4.25;3.00;;;;;;;-0.61;74.32;103213.28;4946526;28;20049;-76
2023/01/24 02:34:34;;;;;;;3.40;1.98;;;;;;;-0.54;74.60;103220.63;4944074;28;20066;-77
2023/01/24 02:37:06;;;;;;;4.72;2.17;;;;;;;-0.54;74.16;103219.72;4947650;28;20048;-77
2023/01/24 02:39:40;;;;;;;3.20;2.17;;;;;;;-0.49;74.62;103228.63;4945169;29;20063;-77
2023/01/24 02:42:11;;;;;;;4.03;2.40;;;;;;;-0.50;73.77;103232.88;4946480;28;20069;-76
2023/01/24 02:44:43;;;;;;;4.90;2.78;;;;;;;-0.47;73.91;103237.31;4948820;28;20058;-76
2023/01/24 02:47:10;;;;;;;6.38;2.88;;;;;;;-0.46;73.87;103221.09;4943582;28;20043;-76
2023/01/24 02:49:37;;;;;;;7.78;3.55;;;;;;;-0.49;74.01;103213.22;4941846;28;20084;-76
2023/01/24 02:54:48;;;;;;;3.50;2.53;;;;;;;-0.44;74.54;103232.38;4945237;28;20424;-77
2023/01/24 03:00:01;;;;;;;4.78;2.40;;;;;;;-0.43;74.33;103229.00;4943080;28;20079;-77
2023/01/24 03:02:28;;;;;;;4.03;2.00;;;;;;;-0.42;73.95;103225.69;4944824;28;20407;-77
2023/01/24 03:04:54;;;;;;;3.65;2.47;;;;;;;-0.41;73.88;103236.84;4944703;28;20043;-76
2023/01/24 03:07:21;;;;;;;5.93;2.50;;;;;;;-0.49;74.34;103214.09;4949222;28;20062;-77
2023/01/24 03:09:48;;;;;;;6.63;3.17;;;;;;;-0.34;74.41;103218.44;4948582;28;20062;-77
2023/01/24 03:34:33;;;;;;;4.70;2.70;;;;;;;-0.28;74.30;103201.78;4942586;28;20094;-77
2023/01/24 03:37:00;;;;;;;5.50;2.40;;;;;;;-0.27;74.24;103200.97;4948562;28;20102;-76
2023/01/24 03:42:11;;;;;;;5.70;2.78;;;;;;;-0.23;74.24;103191.78;4943610;28;20400;-76
2023/01/24 03:44:39;;;;;;;5.47;2.88;;;;;;;-0.21;74.80;103179.06;4950934;28;20055;-76
2023/01/24 03:47:06;;;;;;;6.13;3.42;;;;;;;-0.20;74.28;103150.00;4947832;29;20047;-77
2023/01/24 03:52:30;;;;;;;6.50;3.65;;;;;;;-0.20;74.11;103150.88;4944133;28;20071;-77
2023/01/24 03:54:57;;;;;;;3.50;2.75;;;;;;;-0.17;74.32;103155.31;4944759;28;20411;-76
2023/01/24 03:57:25;;;;;;;5.43;2.97;;;;;;;-0.37;74.74;103116.44;4944933;28;20066;-77
2023/01/24 03:59:53;;;;;;;9.40;3.40;;;;;;;-0.13;74.64;103157.31;4944410;28;20457;-70
2023/01/24 04:02:20;;;;;;;10.05;2.83;;;;;;;-0.12;74.20;103153.94;4943640;28;20053;-70
2023/01/24 04:07:32;;;;;;;6.43;2.42;;;;;;;-0.09;74.44;103167.00;4940018;28;20059;-70
2023/01/24 04:09:59;;;;;;;4.20;2.35;;;;;;;-0.08;74.91;103161.97;4942969;28;20047;-70
2023/01/24 04:12:26;;;;;;;7.50;3.30;;;;;;;-0.08;74.40;103167.09;4944528;28;20516;-70
2023/01/24 04:14:55;;;;;;;6.97;3.35;;;;;;;-0.07;74.79;103178.25;4940026;28;20048;-70
2023/01/24 04:17:22;;;;;;;5.10;3.40;;;;;;;-0.06;74.24;103178.38;4938338;28;20049;-70
2023/01/24 04:19:48;;;;;;;4.47;3.05;;;;;;;-0.13;74.80;103167.59;4936417;28;20047;-70
2023/01/24 04:22:16;;;;;;;8.77;3.10;;;;;;;-0.03;74.76;103172.50;4940999;28;20047;-70
2023/01/24 04:24:43;;;;;;;4.80;2.90;;;;;;;-0.02;74.53;103187.16;4940003;28;20063;-70
2023/01/24 04:27:11;;;;;;;4.28;3.05;;;;;;;-0.01;74.93;103189.81;4940933;28;20054;-70
2023/01/24 04:29:38;;;;;;;4.28;2.75;;;;;;;0.01;74.48;103197.63;4944673;28;20051;-70
2023/01/24 04:32:06;;;;;;;7.18;3.33;;;;;;;0.02;74.45;103190.78;4940931;28;20109;-70
2023/01/24 04:34:33;;;;;;;5.30;2.60;;;;;;;0.02;74.48;103188.22;4940250;28;20051;-70
2023/01/24 04:37:00;;;;;;;6.68;3.15;;;;;;;0.04;74.13;103191.78;4939819;28;20056;-70
2023/01/24 04:39:27;;;;;;;5.00;3.20;;;;;;;0.05;74.38;103189.31;4938775;28;20071;-70
2023/01/24 04:41:54;;;;;;;4.40;2.30;;;;;;;0.07;74.23;103197.13;4943497;28;20051;-70
2023/01/24 04:44:21;;;;;;;5.75;4.03;;;;;;;0.08;74.04;103184.34;4941719;28;20505;-70
2023/01/24 04:46:48;;;;;;;6.68;2.60;;;;;;;0.07;74.37;103182.59;4944685;28;20049;-70
2023/01/24 04:49:17;;;;;;;5.15;2.83;;;;;;;0.11;74.40;103178.53;4938349;28;20044;-70
2023/01/24 04:51:44;;;;;;;8.32;3.08;;;;;;;0.06;74.58;103162.84;4939908;28;20053;-70
2023/01/24 04:54:11;;;;;;;7.85;2.97;;;;;;;0.14;75.14;103169.34;4946333;28;20055;-70
2023/01/24 04:56:38;;;;;;;7.00;3.00;;;;;;;0.16;74.43;103170.31;4941051;28;20052;-70
2023/01/24 04:59:05;;;;;;;9.40;3.65;;;;;;;0.16;75.08;103162.59;4942489;29;20051;-70
2023/01/24 05:01:32;;;;;;;5.22;3.00;;;;;;;0.18;74.62;103162.72;4941102;28;20048;-70
2023/01/24 05:03:59;;;;;;;6.65;3.40;;;;;;;0.20;74.61;103159.44;4945806;28;20069;-70
2023/01/24 05:06:29;;;;;;;8.20;3.95;;;;;;;0.22;75.04;103157.84;4942322;28;20062;-70
2023/01/24 05:08:56;;;;;;;4.95;3.15;;;;;;;0.22;75.01;103157.84;4944027;28;20051;-70
2023/01/24 05:11:24;;;;;;;8.98;3.10;;;;;;;0.25;74.79;103143.41;4938890;28;20152;-70
2023/01/24 05:13:51;;;;;;;6.85;3.83;;;;;;;0.26;74.80;103128.09;4939637;28;20043;-70
2023/01/24 05:16:18;;;;;;;10.73;2.88;;;;;;;0.27;74.35;103136.69;4939937;28;20485;-70
2023/01/24 05:18:45;;;;;;;4.47;3.13;;;;;;;0.29;75.36;103127.38;4937254;29;20413;-70
2023/01/24 05:21:14;;;;;;;5.93;2.85;;;;;;;0.30;74.92;103148.03;4939614;29;20050;-71
2023/01/24 05:23:43;;;;;;;6.28;3.28;;;;;;;0.28;75.22;103138.44;4940332;29;20412;-71
2023/01/24 05:26:10;;;;;;;7.55;2.88;;;;;;;0.32;74.68;103143.00;4938226;29;20043;-71
2023/01/24 05:28:37;;;;;;;5.35;3.25;;;;;;;0.33;74.85;103139.63;4939240;29;20048;-70
2023/01/24 05:31:06;;;;;;;5.68;3.05;;;;;;;0.34;75.51;103131.09;4938753;29;20496;-70
2023/01/24 05:33:33;;;;;;;5.93;3.17;;;;;;;0.36;75.08;103139.81;4940513;29;20102;-70
2023/01/24 05:36:01;;;;;;;5.78;2.85;;;;;;;0.37;75.06;103133.84;4940536;28;20499;-71
2023/01/24 05:38:28;;;;;;;13.65;3.30;;;;;;;0.39;74.94;103129.72;4940953;28;20047;-69
2023/01/24 05:41:00;;;;;;;5.25;2.55;;;;;;;0.40;75.27;103121.22;4938930;28;20054;-70
2023/01/24 05:43:27;;;;;;;5.57;2.90;;;;;;;0.37;75.18;103123.56;4939402;29;20058;-70
2023/01/24 05:45:58;;;;;;;8.52;3.75;;;;;;;0.42;75.80;103125.63;4939015;29;20508;-70
2023/01/24 05:48:25;;;;;;;6.75;3.28;;;;;;;0.43;74.59;103123.97;4938036;28;20050;-70
2023/01/24 05:50:57;;;;;;;7.47;3.75;;;;;;;0.44;75.52;103121.47;4938170;28;20054;-71
2023/01/24 05:53:24;;;;;;;7.82;3.22;;;;;;;0.45;75.16;103114.66;4940832;28;20485;-70
2023/01/24 05:55:57;;;;;;;6.43;4.00;;;;;;;0.48;75.51;103108.81;4941133;29;20061;-70
2023/01/24 05:58:24;;;;;;;7.53;3.80;;;;;;;0.50;75.66;103113.25;4940987;29;20043;-70
2023/01/24 06:00:51;;;;;;;5.13;3.45;;;;;;;0.50;75.46;103100.38;4935233;28;20054;-70
2023/01/24 06:03:18;;;;;;;7.45;3.30;;;;;;;0.53;75.87;103117.69;4940585;29;20070;-70
2023/01/24 06:05:49;;;;;;;6.63;3.40;;;;;;;0.54;75.72;103115.22;4938956;28;20054;-70
2023/01/24 06:08:17;;;;;;;8.77;3.60;;;;;;;0.55;74.97;103110.97;4936195;29;20577;-70
2023/01/24 06:10:44;;;;;;;6.20;3.38;;;;;;;0.57;75.76;103112.84;4939335;29;20417;-70
2023/01/24 06:13:13;;;;;;;8.32;3.65;;;;;;;0.58;76.04;103101.75;4933602;29;20697;-70
2023/01/24 06:15:40;;;;;;;9.48;3.80;;;;;;;0.59;75.14;103103.50;4938381;29;20051;-70
2023/01/24 06:18:08;;;;;;;8.02;3.40;;;;;;;0.61;75.66;103112.22;4939936;29;20055;-69
2023/01/24 06:20:37;;;;;;;8.88;3.90;;;;;;;0.61;75.07;103104.50;4939231;29;20131;-70
2023/01/24 06:23:06;;;;;;;7.82;4.05;;;;;;;0.63;75.55;103090.06;4938817;28;20047;-70
2023/01/24 06:25:34;;;;;;;10.48;4.18;;;;;;;0.65;75.02;103096.19;4936304;29;20064;-70
2023/01/24 06:28:01;;;;;;;6.25;3.28;;;;;;;0.67;76.07;103101.41;4938153;29;20040;-70
2023/01/24 06:30:30;;;;;;;8.43;3.15;;;;;;;0.67;75.44;103086.84;4938885;29;20560;-70
2023/01/24 06:33:17;;;;;;;7.63;3.65;;;;;;;0.69;75.83;103075.78;4938529;28;20051;-70
2023/01/24 06:35:58;;;;;;;9.88;3.83;;;;;;;0.70;76.05;103072.41;4941392;28;20054;-70
2023/01/24 06:38:26;;;;;;;7.57;3.90;;;;;;;0.71;75.66;103076.72;4937649;28;20051;-70
2023/01/24 06:40:57;;;;;;;7.80;3.85;;;;;;;0.71;75.59;103077.63;4941475;29;20496;-70
2023/01/24 06:43:24;;;;;;;6.45;3.45;;;;;;;0.73;74.97;103086.31;4940532;28;20054;-70
2023/01/24 06:45:53;;;;;;;7.57;3.40;;;;;;;0.75;75.53;103094.16;4939833;28;20178;-70
2023/01/24 06:48:20;;;;;;;7.35;4.20;;;;;;;0.75;75.47;103087.31;4942045;28;20050;-70
2023/01/24 06:50:47;;;;;;;10.25;3.88;;;;;;;0.76;75.73;103095.91;4941277;28;20047;-70
2023/01/24 06:53:15;;;;;;;7.97;3.72;;;;;;;0.64;75.39;103083.22;4938267;28;20054;-70
2023/01/24 06:55:45;;;;;;;9.13;3.22;;;;;;;0.78;75.86;103100.34;4937365;28;20106;-70
2023/01/24 06:58:13;;;;;;;10.15;4.18;;;;;;;0.81;75.40;103104.78;4936866;28;20059;-71
2023/01/24 07:00:39;;;;;;;11.65;4.82;;;;;;;0.81;75.95;103097.97;4938349;28;20567;-70
2023/01/24 07:03:08;;;;;;;7.53;4.45;;;;;;;0.83;76.47;103082.63;4940196;28;20051;-70
2023/01/24 07:05:36;;;;;;;7.38;3.22;;;;;;;0.85;75.61;103096.44;4938292;28;20056;-71
2023/01/24 07:08:04;;;;;;;5.65;2.83;;;;;;;0.85;75.65;103093.88;4940409;28;20051;-70
2023/01/24 07:10:31;;;;;;;9.25;3.72;;;;;;;0.87;76.04;103100.00;4940013;28;20051;-71
2023/01/24 07:12:58;;;;;;;10.63;4.57;;;;;;;0.89;76.25;103108.72;4941294;28;20055;-70
2023/01/24 07:15:25;;;;;;;8.13;4.03;;;;;;;0.89;75.61;103104.44;4942679;28;20556;-70
2023/01/24 07:17:53;;;;;;;5.75;3.60;;;;;;;0.91;75.91;103101.94;4944931;28;20049;-70
2023/01/24 07:20:22;;;;;;;6.53;4.40;;;;;;;0.92;76.03;103103.75;4942802;28;20055;-70
2023/01/24 07:22:50;;;;;;;8.10;4.00;;;;;;;0.93;75.63;103105.50;4943916;28;20059;-71
2023/01/24 07:25:19;;;;;;;7.70;4.05;;;;;;;0.94;75.44;103104.72;4943715;28;20051;-71
2023/01/24 07:27:47;;;;;;;9.75;3.67;;;;;;;0.97;75.75;103111.69;4942237;28;20055;-71
2023/01/24 07:30:15;;;;;;;7.80;3.58;;;;;;;0.98;76.25;103114.38;4944982;28;20052;-71
2023/01/24 07:32:42;;;;;;;6.95;3.60;;;;;;;0.99;75.91;103115.25;4943905;28;20074;-71
2023/01/24 07:35:09;;;;;;;9.05;3.28;;;;;;;0.99;76.03;103108.44;4941301;29;20505;-71
2023/01/24 07:37:39;;;;;;;10.75;4.88;;;;;;;1.01;75.99;103111.97;4942517;28;20053;-71
2023/01/24 07:40:06;;;;;;;7.88;4.78;;;;;;;1.03;76.57;103112.97;4943914;28;20043;-72
2023/01/24 07:42:33;;;;;;;9.95;4.68;;;;;;;1.02;75.71;103116.31;4939277;28;20306;-71
2023/01/24 07:45:00;;;;;;;12.35;4.70;;;;;;;1.05;76.83;103110.47;4939398;28;20051;-71
2023/01/24 07:47:28;;;;;;;7.60;4.13;;;;;;;1.03;76.56;103101.78;4942111;28;20054;-71
2023/01/24 07:49:54;;;;;;;9.38;4.47;;;;;;;1.07;76.32;103109.75;4943408;28;20051;-71
2023/01/24 07:52:21;;;;;;;7.05;4.18;;;;;;;1.09;76.69;103104.72;4939711;28;20046;-71
2023/01/24 07:54:50;;;;;;;9.90;4.03;;;;;;;1.10;76.88;103107.38;4941362;29;20058;-72
2023/01/24 07:57:17;;;;;;;10.05;3.78;;;;;;;1.11;76.07;103105.66;4943561;29;20058;-71
2023/01/24 07:59:44;;;;;;;11.48;4.40;;;;;;;1.12;76.72;103107.47;4940083;28;20571;-71
2023/01/24 08:02:12;;;;;;;8.85;3.88;;;;;;;1.05;76.32;103085.66;4944630;28;20454;-70
2023/01/24 08:04:39;;;;;;;6.35;3.15;;;;;;;1.15;76.46;103102.50;4942046;29;20055;-70
2023/01/24 08:07:18;;;;;;;6.47;2.95;;;;;;;1.16;76.45;103096.53;4941731;28;20416;-71
2023/01/24 08:09:45;;;;;;;5.30;3.17;;;;;;;1.16;76.21;103090.50;4941461;28;20055;-71
2023/01/24 08:12:14;;;;;;;6.50;2.65;;;;;;;1.19;76.64;103088.97;4947979;29;20420;-71
2023/01/24 08:14:41;;;;;;;10.80;3.88;;;;;;;1.20;76.22;103075.31;4942455;28;20051;-70
2023/01/24 08:17:08;;;;;;;6.97;3.13;;;;;;;1.22;76.28;103072.81;4939193;28;20059;-71
2023/01/24 08:19:37;;;;;;;10.63;4.07;;;;;;;1.23;76.06;103079.75;4942936;28;20090;-71
2023/01/24 08:22:05;;;;;;;9.82;3.75;;;;;;;1.24;76.33;103076.38;4939862;28;20055;-71
2023/01/24 08:24:32;;;;;;;12.50;3.83;;;;;;;1.26;76.29;103069.63;4943846;28;20051;-71
2023/01/24 08:26:59;;;;;;;6.38;3.58;;;;;;;1.27;76.13;103076.56;4940319;28;20496;-71
2023/01/24 08:29:28;;;;;;;5.00;3.08;;;;;;;1.27;76.35;103085.16;4939514;28;20175;-71
2023/01/24 08:31:55;;;;;;;9.82;3.85;;;;;;;1.30;76.69;103099.91;4942387;28;20044;-71
2023/01/24 08:34:22;;;;;;;12.10;3.78;;;;;;;1.30;76.42;103097.31;4940578;28;20070;-71
2023/01/24 08:36:49;;;;;;;13.82;4.88;;;;;;;1.33;76.90;103100.06;4938795;28;20048;-70
2023/01/24 08:39:15;;;;;;;9.77;3.35;;;;;;;1.35;76.66;103098.47;4943204;28;20523;-71
2023/01/24 08:41:45;;;;;;;9.82;4.40;;;;;;;1.35;77.10;103098.47;4940266;28;20061;-71
2023/01/24 08:44:12;;;;;;;9.82;3.53;;;;;;;1.38;76.57;103096.06;4943453;28;20048;-71
2023/01/24 08:46:41;;;;;;;10.98;3.33;;;;;;;1.39;76.76;103105.56;4945068;29;20518;-71
2023/01/24 08:49:08;;;;;;;14.85;4.28;;;;;;;1.39;76.23;103118.44;4936401;28;20049;-71
2023/01/24 08:51:35;;;;;;;8.10;3.55;;;;;;;1.39;76.22;103108.13;4942689;28;20051;-71
2023/01/24 08:54:02;;;;;;;10.52;4.10;;;;;;;1.43;76.15;103112.69;4942919;28;20054;-71
2023/01/24 08:56:28;;;;;;;7.75;3.35;;;;;;;1.44;76.53;103114.44;4945392;29;20408;-70
2023/01/24 08:58:55;;;;;;;6.70;4.05;;;;;;;1.47;76.17;103116.31;4941163;28;20069;-70
2023/01/24 09:01:22;;;;;;;11.02;4.25;;;;;;;1.48;76.61;103115.50;4938982;28;20057;-71
2023/01/24 09:03:51;;;;;;;10.23;4.20;;;;;;;1.49;76.94;103115.59;4939507;28;20051;-71
2023/01/24 09:06:17;;;;;;;7.10;3.35;;;;;;;1.52;76.56;103123.50;4940354;28;20056;-71
2023/01/24 09:08:45;;;;;;;8.13;3.30;;;;;;;1.52;76.49;103123.50;4941514;28;20043;-71
2023/01/24 09:11:12;;;;;;;7.20;3.00;;;;;;;1.54;76.74;103118.44;4939514;28;20059;-71
2023/01/24 09:13:39;;;;;;;5.95;3.20;;;;;;;1.50;76.82;103112.19;4940328;28;20047;-70
2023/01/24 09:16:07;;;;;;;9.32;3.72;;;;;;;1.57;76.29;103124.63;4938637;28;20048;-71
2023/01/24 09:18:33;;;;;;;10.68;3.65;;;;;;;1.58;76.54;103126.41;4939282;28;20059;-71
2023/01/24 09:21:04;;;;;;;13.52;3.67;;;;;;;1.62;76.74;103121.41;4941317;28;21118;-71
2023/01/24 09:23:31;;;;;;;8.15;4.18;;;;;;;1.62;76.37;103116.25;4939125;28;20063;-70
2023/01/24 09:25:58;;;;;;;9.05;3.80;;;;;;;1.63;76.52;103118.06;4940568;28;20057;-70
2023/01/24 09:28:25;;;;;;;9.23;3.40;;;;;;;1.64;76.69;103120.72;4941437;28;20412;-71
2023/01/24 09:30:52;;;;;;;8.25;3.15;;;;;;;1.63;76.97;103118.94;4938221;28;20046;-70
2023/01/24 09:33:19;;;;;;;7.85;2.90;;;;;;;1.67;76.65;103109.69;4937090;28;20047;-72
2023/01/24 09:35:53;;;;;;;8.05;3.00;;;;;;;1.66;76.82;103102.78;4935859;28;20546;-71
2023/01/24 09:38:22;;;;;;;6.80;2.47;;;;;;;1.67;76.70;103099.38;4945043;28;20054;-71
2023/01/24 09:40:56;;;;;;;2.80;1.73;;;;;;;1.74;76.61;103114.41;4939452;28;20059;-71
2023/01/24 09:43:37;;;;;;;6.55;2.45;;;;;;;1.74;76.47;103101.50;4938730;28;20043;-71
2023/01/24 09:46:14;;;;;;;5.45;1.98;;;;;;;1.75;76.47;103108.44;4940383;28;20526;-71
2023/01/24 09:48:42;;;;;;;7.32;2.17;;;;;;;1.77;77.05;103107.72;4943010;28;20051;-71
2023/01/24 09:51:15;;;;;;;5.32;2.25;;;;;;;1.78;77.06;103106.91;4939397;28;20389;-71
2023/01/24 09:53:46;;;;;;;7.35;2.33;;;;;;;1.76;76.30;103095.59;4938906;28;20055;-71
2023/01/24 09:56:26;;;;;;;6.15;2.15;;;;;;;1.81;77.09;103111.34;4939419;28;20058;-71
2023/01/24 09:59:11;;;;;;;7.13;2.35;;;;;;;1.83;76.56;103111.44;4940976;28;20051;-70
2023/01/24 10:01:42;;;;;;;10.10;2.70;;;;;;;1.85;76.83;103100.41;4939096;29;20055;-71
2023/01/24 10:04:16;;;;;;;8.73;2.55;;;;;;;1.86;76.39;103107.31;4938183;28;20289;-71
2023/01/24 10:07:02;;;;;;;6.68;1.73;;;;;;;1.87;76.85;103098.78;4944957;28;20047;-70
2023/01/24 10:09:36;;;;;;;;;;;;;;;1.90;76.75;103103.22;4941347;28;20399;-71
2023/01/24 10:12:14;;;;;;;9.00;2.00;;;;;;;1.89;76.46;103099.75;4942078;28;20548;-71
2023/01/24 10:14:54;;;;;;;5.65;2.20;;;;;;;1.88;76.63;103079.03;4939704;28;20421;-71
2023/01/24 10:17:34;;;;;;;7.05;2.58;;;;;;;1.92;76.98;103079.31;4942939;28;20054;-71
2023/01/24 10:20:16;;;;;;;5.75;1.90;;;;;;;1.94;77.11;103075.13;4941663;28;20047;-71
2023/01/24 10:23:03;;;;;;;3.63;1.67;;;;;;;1.97;76.24;103074.41;4944696;28;20043;-71
2023/01/24 10:25:37;;;;;;;6.22;1.88;;;;;;;1.97;77.05;103080.44;4936651;29;20059;-71
2023/01/24 10:28:04;;;;;;;7.32;2.22;;;;;;;1.99;76.26;103081.41;4936162;28;20051;-71
2023/01/24 10:30:40;;;;;;;7.68;2.47;;;;;;;1.96;76.91;103062.31;4931018;28;20052;-71
2023/01/24 10:33:16;;;;;;;4.85;2.90;;;;;;;2.01;76.65;103066.91;4939994;28;20040;-71
2023/01/24 10:35:54;;;;;;;9.43;2.22;;;;;;;1.89;76.47;103053.38;4940650;29;20555;-71
2023/01/24 10:38:21;;;;;;;5.15;2.53;;;;;;;2.05;76.76;103067.06;4940773;28;20052;-71
2023/01/24 10:40:55;;;;;;;5.35;1.73;;;;;;;2.07;76.73;103076.66;4940403;28;20053;-71
2023/01/24 10:43:25;;;;;;;6.72;2.15;;;;;;;2.07;77.02;103075.78;4941000;28;20058;-71
2023/01/24 10:46:03;;;;;;;5.80;2.22;;;;;;;2.10;77.14;103065.63;4937144;28;20061;-71
2023/01/24 10:48:40;;;;;;;6.03;2.00;;;;;;;2.12;77.00;103061.44;4943101;28;20510;-71
2023/01/24 10:51:12;;;;;;;11.02;2.70;;;;;;;2.12;76.65;103064.91;4940270;28;20043;-71
2023/01/24 10:53:39;;;;;;;7.22;2.80;;;;;;;2.14;77.15;103057.25;4943176;28;20051;-71
2023/01/24 10:56:09;;;;;;;6.35;2.35;;;;;;;2.05;77.02;103046.44;4942174;28;20044;-72
2023/01/24 10:58:38;;;;;;;7.60;3.03;;;;;;;2.17;76.71;103060.00;4940967;29;20051;-71
2023/01/24 11:01:17;;;;;;;7.13;2.33;;;;;;;2.16;76.81;103056.53;4946086;28;20044;-71
2023/01/24 11:03:45;;;;;;;3.53;1.73;;;;;;;2.19;76.69;103053.19;4945459;28;20047;-71
2023/01/24 11:06:32;;;;;;;6.85;2.05;;;;;;;2.21;76.62;103049.03;4944470;28;20058;-71
2023/01/24 11:09:04;;;;;;;8.48;2.33;;;;;;;2.21;76.83;103042.16;4945917;28;20051;-70
2023/01/24 11:11:34;;;;;;;7.28;1.30;;;;;;;2.22;76.71;103043.03;4944279;28;20489;-71
2023/01/24 11:14:02;;;;;;;3.85;1.95;;;;;;;2.23;76.38;103043.16;4938331;28;20461;-71
2023/01/24 11:16:34;;;;;;;4.00;1.77;;;;;;;2.24;76.73;103044.91;4938987;28;20507;-71
2023/01/24 11:19:04;;;;;;;4.90;1.58;;;;;;;2.27;76.86;103057.06;4943642;28;20058;-71
2023/01/24 11:21:32;;;;;;;10.27;2.13;;;;;;;2.17;76.90;103029.06;4944669;28;20125;-71
2023/01/24 11:24:15;;;;;;;9.15;2.33;;;;;;;2.29;76.85;103050.31;4938143;28;20053;-71
2023/01/24 11:26:56;;;;;;;6.60;1.67;;;;;;;2.29;77.02;103037.41;4941929;28;20054;-71
2023/01/24 11:29:24;;;;;;;6.25;1.92;;;;;;;2.30;76.61;103039.19;4947095;28;20043;-71
2023/01/24 11:31:53;;;;;;;3.65;1.67;;;;;;;2.31;76.79;103034.94;4943100;28;20059;-71
2023/01/24 11:34:40;;;;;;;5.40;1.90;;;;;;;2.33;76.68;103049.66;4943783;28;20099;-71
2023/01/24 11:37:25;;;;;;;5.60;1.63;;;;;;;2.35;77.05;103053.19;4943695;28;20401;-70
2023/01/24 11:40:03;;;;;;;5.07;1.52;;;;;;;2.36;77.03;103049.84;4945660;28;20053;-71
2023/01/24 11:42:37;;;;;;;4.45;2.33;;;;;;;2.35;77.12;103042.88;4940515;28;20564;-71
2023/01/24 11:45:27;;;;;;;5.28;1.88;;;;;;;2.38;76.36;103050.78;4941028;28;20062;-71
2023/01/24 11:48:09;;;;;;;6.68;1.75;;;;;;;2.38;76.86;103040.47;4943362;28;20052;-71
2023/01/24 11:50:43;;;;;;;6.20;1.75;;;;;;;2.39;76.76;103031.94;4940980;28;20055;-71
2023/01/24 11:53:39;;;;;;;6.28;1.80;;;;;;;2.41;76.74;103032.00;4941260;28;20543;-71
2023/01/24 11:56:16;;;;;;;6.03;1.38;;;;;;;2.41;76.29;103032.88;4943242;29;20055;-71
2023/01/24 11:59:08;;;;;;;3.83;1.55;;;;;;;2.42;76.55;103018.28;4942886;28;20047;-71
2023/01/24 12:01:46;;;;;;;5.63;1.42;;;;;;;2.35;76.73;103006.78;4941357;28;20058;-71
2023/01/24 12:04:46;;;;;;;6.45;2.17;;;;;;;2.44;77.13;103022.72;4939001;28;20053;-71
2023/01/24 12:07:20;;;;;;;3.72;1.95;;;;;;;2.44;77.01;103027.88;4939271;28;20048;-71
2023/01/24 12:09:53;;;;;;;5.30;1.27;;;;;;;2.44;76.61;103012.41;4941660;28;20066;-70
2023/01/24 12:12:26;;;;;;;6.97;1.67;;;;;;;2.45;76.97;103019.34;4942935;28;20502;-71
2023/01/24 12:15:18;;;;;;;3.92;1.50;;;;;;;2.49;76.57;103007.47;4941678;28;20055;-70
2023/01/24 12:18:01;;;;;;;7.25;1.95;;;;;;;2.49;76.63;102999.75;4943002;28;20051;-71
2023/01/24 12:20:44;;;;;;;4.82;1.80;;;;;;;2.50;77.18;102991.19;4942502;28;20063;-70
2023/01/24 12:23:20;;;;;;;5.57;1.88;;;;;;;2.52;77.00;102993.84;4941226;28;20043;-71